Terminal Aerodrome Forecast
Issued by NWS St Louis, MO

Home | Current Version | Previous Version | Text Only | Print | Product List | Glossary On
Versions: 1 2 3 4 5 6 7 8 9 10 11 12 13 14 15 16 17 18 19 20 21 22 23 24 25 26 27 28 29 30 31 32
000
FTUS43 KLSX 181700 RRA
TAFSTL
TAF
KSTL 181745Z 1818/1924 06004KT P6SM BKN025 OVC050
      TEMPO 1818/1820 5SM -SN BR
     FM190200 VRB03KT 5SM BR OVC015
     FM191000 VRB03KT 2SM BR OVC005
     FM191700 VRB03KT P6SM OVC012=

USA.gov is the U.S. government's official web portal to all federal, state and local government web resources and services.